Time;durP1;ratioP1;P1;durP2;ratioP2;P2;SDS_P1;SDS_P2;PMS_P1;PMS_P2;Temp;Humidity;BMP_temperature;BMP_pressure;BME280_temperature;BME280_humidity;BME280_pressure;Samples;Min_cycle;Max_cycle;Signal;HPM_P1;HPM_P2
2022/01/11 00:04:48;;;;;;;0.00;0.00;;;0.00;77.60;;;;;;20884514;28;20033;-50
2022/01/11 00:14:51;;;;;;;0.20;0.00;;;0.10;76.90;;;;;;20884586;28;20041;-51
2022/01/11 00:24:54;;;;;;;0.10;0.10;;;-0.10;78.60;;;;;;20928107;28;20044;-50
2022/01/11 00:34:57;;;;;;;0.10;0.00;;;-0.20;79.40;;;;;;20966998;28;20082;-53
2022/01/11 00:45:00;;;;;;;0.00;0.00;;;-0.40;80.10;;;;;;20961518;28;20029;-55
2022/01/11 00:55:03;;;;;;;0.50;0.10;;;-0.50;79.80;;;;;;20882240;28;20051;-51
2022/01/11 01:05:06;;;;;;;0.25;0.00;;;-0.40;79.90;;;;;;20896839;28;20098;-51
2022/01/11 01:15:09;;;;;;;0.15;0.00;;;-0.40;80.20;;;;;;20905497;28;20109;-50
2022/01/11 01:25:13;;;;;;;0.00;0.00;;;-0.40;80.50;;;;;;20880536;28;20049;-51
2022/01/11 01:35:19;;;;;;;0.30;0.03;;;-0.40;80.40;;;;;;20976712;28;20101;-52
2022/01/11 01:45:23;;;;;;;0.10;0.00;;;-0.60;79.60;;;;;;20961583;28;20063;-52
2022/01/11 01:55:26;;;;;;;0.10;0.00;;;-0.40;79.70;;;;;;20977367;28;20090;-53
2022/01/11 02:05:29;;;;;;;0.05;0.00;;;-0.30;79.90;;;;;;20951491;28;20040;-51
2022/01/11 02:15:35;;;;;;;0.15;0.00;;;-0.30;78.10;;;;;;20893002;28;20086;-53
2022/01/11 02:25:39;;;;;;;0.10;0.00;;;-0.20;79.30;;;;;;20874766;28;20048;-53
2022/01/11 02:35:51;;;;;;;0.00;0.00;;;-0.40;79.30;;;;;;20891264;28;20053;-54
2022/01/11 02:45:58;;;;;;;0.15;0.00;;;-0.40;80.80;;;;;;20890665;28;20033;-53
2022/01/11 02:56:02;;;;;;;0.00;0.00;;;-0.80;82.30;;;;;;20889967;28;20041;-55
2022/01/11 03:06:08;;;;;;;0.15;0.00;;;-0.80;80.80;;;;;;20872952;28;20561;-57
2022/01/11 03:16:16;;;;;;;0.00;0.00;;;-0.80;81.40;;;;;;20888804;28;20451;-50
2022/01/11 03:26:19;;;;;;;0.00;0.00;;;-0.90;81.20;;;;;;20691994;28;20054;-56
2022/01/11 03:36:24;;;;;;;0.00;0.00;;;-1.10;81.40;;;;;;20649492;28;20564;-51
2022/01/11 03:46:30;;;;;;;0.00;0.00;;;-1.10;82.30;;;;;;20632530;28;20584;-50
2022/01/11 03:56:34;;;;;;;0.00;0.00;;;-0.90;81.40;;;;;;20676027;28;20422;-52
2022/01/11 04:06:41;;;;;;;0.20;0.10;;;-1.10;82.80;;;;;;20803210;28;20615;-52
2022/01/11 04:16:46;;;;;;;0.00;0.00;;;-1.20;82.70;;;;;;20802017;28;20041;-51
2022/01/11 04:26:50;;;;;;;0.08;0.00;;;-1.10;82.10;;;;;;20919439;28;20052;-51
2022/01/11 04:36:54;;;;;;;0.15;0.00;;;-1.10;82.40;;;;;;20951018;28;20040;-51
2022/01/11 04:46:57;;;;;;;0.30;0.00;;;-1.20;82.70;;;;;;20930888;28;20520;-52
2022/01/11 04:57:01;;;;;;;0.15;0.00;;;-1.20;83.00;;;;;;20882017;28;20448;-50
2022/01/11 05:07:05;;;;;;;0.10;0.00;;;-1.10;81.30;;;;;;20898150;28;20040;-54
2022/01/11 05:17:08;;;;;;;0.25;0.10;;;-1.10;82.50;;;;;;20897270;28;20373;-53
2022/01/11 05:27:10;;;;;;;0.00;0.00;;;-1.30;80.40;;;;;;20896245;28;20049;-54
2022/01/11 05:37:14;;;;;;;0.10;0.00;;;-0.60;76.50;;;;;;20642424;28;20046;-51
2022/01/11 05:47:17;;;;;;;0.55;0.10;;;-0.50;77.10;;;;;;20657612;28;20073;-50
2022/01/11 05:57:20;;;;;;;0.10;0.00;;;-0.80;79.90;;;;;;20656634;28;20042;-51
2022/01/11 06:07:23;;;;;;;0.00;0.00;;;-0.90;80.60;;;;;;20694868;28;20046;-53
2022/01/11 06:17:27;;;;;;;0.00;0.00;;;-1.30;80.90;;;;;;20809847;28;20049;-51
2022/01/11 06:27:31;;;;;;;0.13;0.10;;;-1.10;79.40;;;;;;20893148;28;20098;-51
2022/01/11 06:37:37;;;;;;;0.20;0.00;;;-1.10;79.20;;;;;;20909584;28;20040;-51
2022/01/11 06:47:40;;;;;;;0.05;0.00;;;-0.60;76.90;;;;;;20874009;28;20037;-53
2022/01/11 06:57:43;;;;;;;0.10;0.00;;;-0.30;75.70;;;;;;20889928;28;20041;-52
2022/01/11 07:07:47;;;;;;;0.10;0.00;;;-0.50;76.50;;;;;;20872565;28;20094;-50
2022/01/11 07:17:52;;;;;;;0.20;0.00;;;-0.70;76.40;;;;;;20887373;28;20028;-51
2022/01/11 07:27:56;;;;;;;0.17;0.10;;;-0.60;77.70;;;;;;20870244;28;20401;-55
2022/01/11 07:38:00;;;;;;;0.00;0.00;;;-0.70;76.80;;;;;;20870425;28;20041;-51
2022/01/11 07:48:04;;;;;;;0.40;0.10;;;-0.40;76.90;;;;;;20869485;28;20138;-51
2022/01/11 07:58:11;;;;;;;0.10;0.00;;;-0.50;79.10;;;;;;20868946;28;20036;-50
2022/01/11 08:08:16;;;;;;;0.65;0.10;;;0.10;74.20;;;;;;20900748;28;20033;-51
2022/01/11 08:18:19;;;;;;;0.20;0.00;;;0.10;79.70;;;;;;20883333;28;20037;-50
2022/01/11 08:28:25;;;;;;;0.13;0.00;;;0.50;77.90;;;;;;20882734;28;20049;-49
2022/01/11 08:38:34;;;;;;;;;;;0.60;76.10;;;;;;20867047;28;20083;-51
2022/01/11 08:48:39;;;;;;;0.10;0.00;;;1.60;65.90;;;;;;20899773;28;20434;-51
2022/01/11 08:58:48;;;;;;;0.47;0.10;;;2.80;67.60;;;;;;20864995;28;20098;-51
2022/01/11 09:09:02;;;;;;;0.00;0.00;;;1.90;75.30;;;;;;20881079;28;20439;-50
2022/01/11 09:19:07;;;;;;;0.10;0.10;;;1.50;75.40;;;;;;20881353;28;20041;-50
2022/01/11 09:29:10;;;;;;;0.28;0.10;;;1.70;75.00;;;;;;20863718;28;20053;-51
2022/01/11 09:39:18;;;;;;;0.30;0.10;;;2.00;75.20;;;;;;20875297;28;20037;-51
2022/01/11 09:49:23;;;;;;;0.57;0.00;;;2.40;73.50;;;;;;20896447;28;20087;-50
2022/01/11 09:59:29;;;;;;;0.17;0.00;;;2.90;70.00;;;;;;20894192;28;20063;-54
2022/01/11 10:09:54;;;;;;;0.10;0.05;;;3.50;67.20;;;;;;20894170;28;20102;-50
2022/01/11 10:20:12;;;;;;;0.20;0.00;;;3.80;67.50;;;;;;20892752;28;20037;-51
2022/01/11 10:30:27;;;;;;;0.20;0.10;;;3.40;68.70;;;;;;20883245;28;20485;-52
2022/01/11 10:40:43;;;;;;;0.17;0.10;;;3.90;69.10;;;;;;20875292;28;20040;-51
2022/01/11 10:50:56;;;;;;;0.10;0.10;;;4.20;66.40;;;;;;20896467;28;20045;-50
2022/01/11 11:01:03;;;;;;;0.10;0.00;;;4.30;64.30;;;;;;20863742;28;20499;-55
2022/01/11 11:11:11;;;;;;;0.90;0.17;;;4.20;65.00;;;;;;20863337;28;20064;-51
2022/01/11 11:21:23;;;;;;;0.13;0.10;;;4.40;62.90;;;;;;20864775;28;20149;-51
2022/01/11 11:31:26;;;;;;;0.70;0.00;;;4.80;63.00;;;;;;20903761;28;20044;-52
2022/01/11 11:41:31;;;;;;;0.10;0.00;;;5.20;64.10;;;;;;20903770;28;20154;-51
2022/01/11 11:51:39;;;;;;;0.10;0.05;;;5.10;63.60;;;;;;20885285;28;20040;-52
2022/01/11 12:01:50;;;;;;;0.20;0.10;;;5.30;63.50;;;;;;20901236;28;20041;-52
2022/01/11 12:11:57;;;;;;;0.15;0.10;;;5.40;60.80;;;;;;20900698;28;20028;-53
2022/01/11 12:22:06;;;;;;;0.30;0.20;;;4.80;63.20;;;;;;20902092;28;20041;-52
2022/01/11 12:32:09;;;;;;;0.40;0.08;;;4.70;64.20;;;;;;20646562;28;20116;-52
2022/01/11 12:42:26;;;;;;;0.25;0.08;;;4.80;61.40;;;;;;20647758;28;20487;-54
2022/01/11 12:52:34;;;;;;;0.20;0.10;;;5.10;60.90;;;;;;20649227;28;20406;-53
2022/01/11 13:02:37;;;;;;;0.30;0.05;;;5.00;59.10;;;;;;20649198;28;20100;-51
2022/01/11 13:12:45;;;;;;;2.78;0.10;;;4.80;58.40;;;;;;20778576;28;20550;-51
2022/01/11 13:23:35;;;;;;;0.20;0.00;;;5.00;58.30;;;;;;20914454;28;20060;-52
2022/01/11 13:33:34;;;;;;;0.37;0.10;;;4.70;57.00;;;;;;20954444;28;20044;-53
2022/01/11 13:43:43;;;;;;;0.20;0.03;;;4.30;57.30;;;;;;20978806;28;20154;-53
2022/01/11 13:53:47;;;;;;;0.13;0.03;;;4.10;56.90;;;;;;20977440;28;20032;-56
2022/01/11 14:03:51;;;;;;;0.20;0.10;;;4.00;57.40;;;;;;20890406;28;20091;-53
2022/01/11 14:14:02;;;;;;;0.03;0.00;;;4.00;56.90;;;;;;20801912;28;20444;-53
2022/01/11 14:24:05;;;;;;;0.20;0.00;;;4.00;53.70;;;;;;20820891;28;20056;-52
2022/01/11 14:34:10;;;;;;;0.20;0.10;;;3.90;54.00;;;;;;20899543;28;20128;-52
2022/01/11 14:44:17;;;;;;;0.10;0.10;;;3.60;55.30;;;;;;20887602;28;20053;-54
2022/01/11 14:54:24;;;;;;;0.10;0.00;;;3.40;54.90;;;;;;20922721;28;20033;-56
2022/01/11 15:04:31;;;;;;;0.50;0.10;;;3.20;57.80;;;;;;20906303;28;20090;-52
2022/01/11 15:14:36;;;;;;;0.15;0.00;;;3.10;56.10;;;;;;20905156;28;20091;-53
2022/01/11 15:24:39;;;;;;;0.10;0.03;;;2.60;56.50;;;;;;20904702;28;20474;-53
2022/01/11 15:34:41;;;;;;;1.88;0.60;;;1.90;57.40;;;;;;20886288;28;20393;-54
2022/01/11 15:44:46;;;;;;;1.48;0.50;;;1.20;68.60;;;;;;20886286;28;20028;-54
2022/01/11 15:54:52;;;;;;;0.73;0.17;;;0.00;77.60;;;;;;20885391;28;20067;-55
2022/01/11 16:04:57;;;;;;;0.40;0.10;;;-0.50;73.30;;;;;;20884918;28;20071;-52
2022/01/11 16:15:03;;;;;;;0.35;0.10;;;-0.50;63.70;;;;;;20885312;28;20048;-51
2022/01/11 16:25:08;;;;;;;0.20;0.00;;;-0.70;74.10;;;;;;20884277;28;20040;-54
2022/01/11 16:35:11;;;;;;;0.03;0.00;;;-1.40;77.20;;;;;;20883122;28;20110;-52
2022/01/11 16:45:19;;;;;;;0.80;0.10;;;-1.20;68.20;;;;;;20882510;28;20033;-51
2022/01/11 16:55:26;;;;;;;0.73;0.10;;;-0.50;70.60;;;;;;20882704;28;20382;-51
2022/01/11 17:05:32;;;;;;;0.05;0.05;;;-0.60;72.40;;;;;;20882292;28;20086;-53
2022/01/11 17:15:35;;;;;;;0.17;0.10;;;-0.90;70.50;;;;;;20882587;28;20110;-52
2022/01/11 17:25:38;;;;;;;0.10;0.00;;;-0.80;70.80;;;;;;20880931;28;20291;-54
2022/01/11 17:35:42;;;;;;;0.10;0.03;;;-0.50;72.10;;;;;;20902919;28;20044;-53
2022/01/11 17:45:46;;;;;;;0.73;0.10;;;-1.00;69.00;;;;;;20881848;28;20033;-52
2022/01/11 17:55:52;;;;;;;0.52;0.10;;;-0.90;69.00;;;;;;20900308;28;20032;-51
2022/01/11 18:05:55;;;;;;;0.38;0.13;;;-0.80;71.20;;;;;;20910572;28;20045;-53
2022/01/11 18:15:58;;;;;;;1.58;0.20;;;-0.80;67.80;;;;;;20910186;28;20370;-52
2022/01/11 18:26:01;;;;;;;1.05;0.30;;;-1.20;73.30;;;;;;20892083;28;20071;-52
2022/01/11 18:36:07;;;;;;;3.05;0.70;;;-1.90;80.50;;;;;;20875406;28;20037;-51
2022/01/11 18:46:12;;;;;;;1.38;0.55;;;-2.40;84.10;;;;;;20892024;28;20036;-51
2022/01/11 18:56:14;;;;;;;0.68;0.20;;;-2.80;89.10;;;;;;20890153;28;20033;-54
2022/01/11 19:06:21;;;;;;;0.50;0.17;;;-3.20;88.80;;;;;;20888757;28;20032;-53
2022/01/11 19:16:25;;;;;;;0.40;0.17;;;-3.30;87.00;;;;;;20890158;28;20037;-52
2022/01/11 19:26:30;;;;;;;0.75;0.20;;;-3.00;82.80;;;;;;20887578;28;20057;-50
2022/01/11 19:36:33;;;;;;;0.75;0.22;;;-2.10;78.60;;;;;;20887087;28;20397;-50
2022/01/11 19:46:37;;;;;;;0.55;0.20;;;-2.50;80.60;;;;;;20886401;28;20037;-53
2022/01/11 19:56:41;;;;;;;0.70;0.30;;;-3.00;80.50;;;;;;20886867;28;20033;-52
2022/01/11 20:06:44;;;;;;;0.25;0.10;;;-2.70;78.90;;;;;;20884688;28;20045;-51
2022/01/11 20:16:47;;;;;;;0.55;0.30;;;-1.00;66.40;;;;;;20883562;28;20037;-51
2022/01/11 20:27:12;;;;;;;1.00;0.25;;;-0.70;68.80;;;;;;20883457;28;20045;-51
2022/01/11 20:37:16;;;;;;;0.25;0.20;;;-1.90;74.80;;;;;;20883190;28;20037;-52
2022/01/11 20:47:26;;;;;;;0.55;0.10;;;-2.60;78.70;;;;;;20882581;28;20041;-53
2022/01/11 20:57:31;;;;;;;0.93;0.20;;;-3.00;78.20;;;;;;20882170;28;20423;-52
2022/01/11 21:07:35;;;;;;;0.45;0.15;;;-3.40;81.00;;;;;;20881434;28;20033;-50
2022/01/11 21:28:01;;;;;;;5.00;2.20;;;-4.20;90.30;;;;;;20897118;28;20550;-51
2022/01/11 21:38:04;;;;;;;6.25;2.33;;;-4.40;95.80;;;;;;20978891;28;20108;-51
2022/01/11 21:48:08;;;;;;;2.85;1.38;;;-4.70;97.60;;;;;;20978230;28;20062;-53
2022/01/11 21:58:11;;;;;;;6.07;1.58;;;-4.90;95.90;;;;;;20994347;28;20337;-50
2022/01/11 22:08:14;;;;;;;0.90;0.20;;;-5.20;98.00;;;;;;20928916;28;20427;-53
2022/01/11 22:18:17;;;;;;;0.22;0.10;;;-5.20;93.60;;;;;;20871773;28;20036;-51
2022/01/11 22:28:22;;;;;;;0.45;0.20;;;-4.70;91.10;;;;;;20876045;28;20049;-52
2022/01/11 22:38:27;;;;;;;0.55;0.10;;;-4.40;90.10;;;;;;20892506;28;20421;-52
2022/01/11 22:48:32;;;;;;;0.60;0.15;;;-4.00;84.30;;;;;;20890495;28;20095;-50
2022/01/11 22:58:35;;;;;;;0.60;0.20;;;-3.60;78.10;;;;;;20890572;28;20448;-51
2022/01/11 23:08:38;;;;;;;0.52;0.20;;;-2.10;69.00;;;;;;20889872;28;20477;-51
2022/01/11 23:18:40;;;;;;;0.38;0.15;;;-2.60;70.70;;;;;;20888872;28;20036;-51
2022/01/11 23:28:43;;;;;;;1.00;0.35;;;-2.50;75.00;;;;;;20888433;28;20056;-50
2022/01/11 23:38:53;;;;;;;3.53;0.50;;;-3.00;77.00;;;;;;20887533;28;20090;-50
2022/01/11 23:48:57;;;;;;;2.38;1.20;;;-3.40;81.20;;;;;;20903982;28;20037;-51
2022/01/11 23:58:59;;;;;;;1.92;0.80;;;-3.80;89.00;;;;;;20886403;28;20067;-55
